sensor_id;sensor_type;location;lat;lon;timestamp;P1;durP1;ratioP1;P2;durP2;ratioP2
10248;SDS011;5169;50.560;9.714;2023-04-06T00:00:01;3.63;;;3.10;;
10248;SDS011;5169;50.560;9.714;2023-04-06T00:02:27;4.03;;;3.33;;
10248;SDS011;5169;50.560;9.714;2023-04-06T00:04:52;3.80;;;3.30;;
10248;SDS011;5169;50.560;9.714;2023-04-06T00:07:20;7.10;;;3.57;;
10248;SDS011;5169;50.560;9.714;2023-04-06T00:09:48;4.73;;;3.53;;
10248;SDS011;5169;50.560;9.714;2023-04-06T00:12:14;6.50;;;3.97;;
10248;SDS011;5169;50.560;9.714;2023-04-06T00:14:42;5.97;;;3.20;;
10248;SDS011;5169;50.560;9.714;2023-04-06T00:17:10;6.60;;;3.57;;
10248;SDS011;5169;50.560;9.714;2023-04-06T00:19:36;4.93;;;3.17;;
10248;SDS011;5169;50.560;9.714;2023-04-06T00:22:02;5.07;;;3.70;;
10248;SDS011;5169;50.560;9.714;2023-04-06T00:24:30;6.07;;;3.80;;
10248;SDS011;5169;50.560;9.714;2023-04-06T00:26:55;5.30;;;3.40;;
10248;SDS011;5169;50.560;9.714;2023-04-06T00:29:21;4.80;;;3.53;;
10248;SDS011;5169;50.560;9.714;2023-04-06T00:31:49;4.07;;;3.37;;
10248;SDS011;5169;50.560;9.714;2023-04-06T00:34:15;5.10;;;3.80;;
10248;SDS011;5169;50.560;9.714;2023-04-06T00:36:40;5.43;;;4.03;;
10248;SDS011;5169;50.560;9.714;2023-04-06T00:39:06;4.70;;;3.70;;
10248;SDS011;5169;50.560;9.714;2023-04-06T00:41:32;5.63;;;3.93;;
10248;SDS011;5169;50.560;9.714;2023-04-06T00:43:58;5.27;;;3.73;;
10248;SDS011;5169;50.560;9.714;2023-04-06T00:46:23;6.93;;;3.70;;
10248;SDS011;5169;50.560;9.714;2023-04-06T00:48:51;4.73;;;4.20;;
10248;SDS011;5169;50.560;9.714;2023-04-06T00:51:17;5.27;;;3.80;;
10248;SDS011;5169;50.560;9.714;2023-04-06T00:53:42;4.13;;;3.67;;
10248;SDS011;5169;50.560;9.714;2023-04-06T00:56:10;6.40;;;3.90;;
10248;SDS011;5169;50.560;9.714;2023-04-06T00:58:38;6.53;;;4.00;;
10248;SDS011;5169;50.560;9.714;2023-04-06T01:01:05;5.20;;;4.00;;
10248;SDS011;5169;50.560;9.714;2023-04-06T01:03:31;5.13;;;3.67;;
10248;SDS011;5169;50.560;9.714;2023-04-06T01:05:59;5.13;;;4.00;;
10248;SDS011;5169;50.560;9.714;2023-04-06T01:08:24;6.03;;;4.23;;
10248;SDS011;5169;50.560;9.714;2023-04-06T01:10:52;4.60;;;4.10;;
10248;SDS011;5169;50.560;9.714;2023-04-06T01:13:18;6.10;;;4.20;;
10248;SDS011;5169;50.560;9.714;2023-04-06T01:15:44;5.67;;;4.40;;
10248;SDS011;5169;50.560;9.714;2023-04-06T01:18:13;5.60;;;4.23;;
10248;SDS011;5169;50.560;9.714;2023-04-06T01:20:41;5.53;;;4.17;;
10248;SDS011;5169;50.560;9.714;2023-04-06T01:23:07;5.20;;;4.13;;
10248;SDS011;5169;50.560;9.714;2023-04-06T01:25:32;4.73;;;4.07;;
10248;SDS011;5169;50.560;9.714;2023-04-06T01:27:58;5.07;;;4.20;;
10248;SDS011;5169;50.560;9.714;2023-04-06T01:30:26;5.10;;;3.90;;
10248;SDS011;5169;50.560;9.714;2023-04-06T01:32:52;6.60;;;4.13;;
10248;SDS011;5169;50.560;9.714;2023-04-06T01:35:20;5.63;;;4.37;;
10248;SDS011;5169;50.560;9.714;2023-04-06T01:37:47;5.13;;;4.17;;
10248;SDS011;5169;50.560;9.714;2023-04-06T01:40:12;5.70;;;4.30;;
10248;SDS011;5169;50.560;9.714;2023-04-06T01:42:38;5.40;;;4.33;;
10248;SDS011;5169;50.560;9.714;2023-04-06T01:45:04;4.97;;;4.43;;
10248;SDS011;5169;50.560;9.714;2023-04-06T01:47:30;4.83;;;3.80;;
10248;SDS011;5169;50.560;9.714;2023-04-06T01:49:56;7.33;;;4.13;;
10248;SDS011;5169;50.560;9.714;2023-04-06T01:52:21;5.30;;;4.37;;
10248;SDS011;5169;50.560;9.714;2023-04-06T01:54:49;4.67;;;3.77;;
10248;SDS011;5169;50.560;9.714;2023-04-06T01:57:15;5.60;;;3.90;;
10248;SDS011;5169;50.560;9.714;2023-04-06T01:59:43;4.97;;;3.90;;
10248;SDS011;5169;50.560;9.714;2023-04-06T02:02:13;5.77;;;4.00;;
10248;SDS011;5169;50.560;9.714;2023-04-06T02:04:41;5.10;;;4.27;;
10248;SDS011;5169;50.560;9.714;2023-04-06T02:07:09;5.83;;;3.87;;
10248;SDS011;5169;50.560;9.714;2023-04-06T02:09:37;4.00;;;3.60;;
10248;SDS011;5169;50.560;9.714;2023-04-06T02:12:07;5.60;;;3.97;;
10248;SDS011;5169;50.560;9.714;2023-04-06T02:14:33;4.40;;;3.80;;
10248;SDS011;5169;50.560;9.714;2023-04-06T02:17:01;5.43;;;3.73;;
10248;SDS011;5169;50.560;9.714;2023-04-06T02:19:29;5.03;;;3.97;;
10248;SDS011;5169;50.560;9.714;2023-04-06T02:21:57;5.37;;;4.00;;
10248;SDS011;5169;50.560;9.714;2023-04-06T02:24:27;8.27;;;4.70;;
10248;SDS011;5169;50.560;9.714;2023-04-06T02:26:55;8.97;;;5.70;;
10248;SDS011;5169;50.560;9.714;2023-04-06T02:29:21;10.60;;;5.53;;
10248;SDS011;5169;50.560;9.714;2023-04-06T02:31:47;8.50;;;5.40;;
10248;SDS011;5169;50.560;9.714;2023-04-06T02:34:12;8.67;;;5.77;;
10248;SDS011;5169;50.560;9.714;2023-04-06T02:36:43;7.53;;;4.80;;
10248;SDS011;5169;50.560;9.714;2023-04-06T02:39:09;8.50;;;5.70;;
10248;SDS011;5169;50.560;9.714;2023-04-06T02:41:38;6.37;;;4.73;;
10248;SDS011;5169;50.560;9.714;2023-04-06T02:44:04;5.80;;;4.60;;
10248;SDS011;5169;50.560;9.714;2023-04-06T02:46:34;5.67;;;4.53;;
10248;SDS011;5169;50.560;9.714;2023-04-06T02:49:02;6.60;;;4.60;;
10248;SDS011;5169;50.560;9.714;2023-04-06T02:51:28;6.57;;;4.90;;
10248;SDS011;5169;50.560;9.714;2023-04-06T02:53:54;7.10;;;4.97;;
10248;SDS011;5169;50.560;9.714;2023-04-06T02:56:19;7.30;;;4.97;;
10248;SDS011;5169;50.560;9.714;2023-04-06T02:58:48;6.40;;;4.80;;
10248;SDS011;5169;50.560;9.714;2023-04-06T03:01:13;5.40;;;4.40;;
10248;SDS011;5169;50.560;9.714;2023-04-06T03:03:39;8.70;;;4.87;;
10248;SDS011;5169;50.560;9.714;2023-04-06T03:06:05;7.63;;;5.07;;
10248;SDS011;5169;50.560;9.714;2023-04-06T03:08:31;10.73;;;5.00;;
10248;SDS011;5169;50.560;9.714;2023-04-06T03:10:59;9.43;;;4.97;;
10248;SDS011;5169;50.560;9.714;2023-04-06T03:13:27;7.13;;;5.27;;
10248;SDS011;5169;50.560;9.714;2023-04-06T03:15:52;8.17;;;5.30;;
10248;SDS011;5169;50.560;9.714;2023-04-06T03:18:20;9.20;;;6.20;;
10248;SDS011;5169;50.560;9.714;2023-04-06T03:20:48;12.00;;;6.63;;
10248;SDS011;5169;50.560;9.714;2023-04-06T03:23:13;10.47;;;6.67;;
10248;SDS011;5169;50.560;9.714;2023-04-06T03:25:39;10.27;;;6.00;;
10248;SDS011;5169;50.560;9.714;2023-04-06T03:28:05;8.23;;;6.00;;
10248;SDS011;5169;50.560;9.714;2023-04-06T03:30:30;8.30;;;5.73;;
10248;SDS011;5169;50.560;9.714;2023-04-06T03:32:56;6.37;;;5.20;;
10248;SDS011;5169;50.560;9.714;2023-04-06T03:35:22;7.73;;;5.07;;
10248;SDS011;5169;50.560;9.714;2023-04-06T03:37:48;6.13;;;4.40;;
10248;SDS011;5169;50.560;9.714;2023-04-06T03:40:13;7.97;;;4.53;;
10248;SDS011;5169;50.560;9.714;2023-04-06T03:42:39;6.90;;;4.20;;
10248;SDS011;5169;50.560;9.714;2023-04-06T03:45:07;5.13;;;4.00;;
10248;SDS011;5169;50.560;9.714;2023-04-06T03:47:37;8.03;;;4.57;;
10248;SDS011;5169;50.560;9.714;2023-04-06T03:50:03;7.23;;;4.63;;
10248;SDS011;5169;50.560;9.714;2023-04-06T03:52:31;5.53;;;4.40;;
10248;SDS011;5169;50.560;9.714;2023-04-06T03:54:57;7.07;;;4.67;;
10248;SDS011;5169;50.560;9.714;2023-04-06T03:57:27;5.40;;;4.10;;
10248;SDS011;5169;50.560;9.714;2023-04-06T03:59:52;5.67;;;4.00;;
10248;SDS011;5169;50.560;9.714;2023-04-06T04:02:21;5.97;;;4.80;;
10248;SDS011;5169;50.560;9.714;2023-04-06T04:04:46;6.87;;;4.60;;
10248;SDS011;5169;50.560;9.714;2023-04-06T04:07:12;5.13;;;4.30;;
10248;SDS011;5169;50.560;9.714;2023-04-06T04:09:37;7.77;;;4.77;;
10248;SDS011;5169;50.560;9.714;2023-04-06T04:12:03;9.10;;;4.30;;
10248;SDS011;5169;50.560;9.714;2023-04-06T04:14:29;5.47;;;4.10;;
10248;SDS011;5169;50.560;9.714;2023-04-06T04:16:57;6.83;;;4.20;;
10248;SDS011;5169;50.560;9.714;2023-04-06T04:19:22;5.73;;;4.43;;
10248;SDS011;5169;50.560;9.714;2023-04-06T04:21:48;7.57;;;4.37;;
10248;SDS011;5169;50.560;9.714;2023-04-06T04:24:16;6.80;;;4.70;;
10248;SDS011;5169;50.560;9.714;2023-04-06T04:26:44;11.50;;;4.60;;
10248;SDS011;5169;50.560;9.714;2023-04-06T04:29:09;7.17;;;4.80;;
10248;SDS011;5169;50.560;9.714;2023-04-06T04:31:35;7.63;;;5.00;;
10248;SDS011;5169;50.560;9.714;2023-04-06T04:34:01;6.23;;;4.80;;
10248;SDS011;5169;50.560;9.714;2023-04-06T04:36:26;8.20;;;4.93;;
10248;SDS011;5169;50.560;9.714;2023-04-06T04:38:52;6.33;;;4.73;;
10248;SDS011;5169;50.560;9.714;2023-04-06T04:41:18;6.80;;;5.17;;
10248;SDS011;5169;50.560;9.714;2023-04-06T04:43:44;6.13;;;4.80;;
10248;SDS011;5169;50.560;9.714;2023-04-06T04:46:09;7.87;;;5.30;;
10248;SDS011;5169;50.560;9.714;2023-04-06T04:48:35;7.73;;;4.93;;
10248;SDS011;5169;50.560;9.714;2023-04-06T04:51:01;7.23;;;5.10;;
10248;SDS011;5169;50.560;9.714;2023-04-06T04:53:27;6.87;;;5.40;;
10248;SDS011;5169;50.560;9.714;2023-04-06T04:55:52;7.33;;;6.20;;
10248;SDS011;5169;50.560;9.714;2023-04-06T04:58:18;8.47;;;6.27;;
10248;SDS011;5169;50.560;9.714;2023-04-06T05:00:46;9.90;;;6.43;;
10248;SDS011;5169;50.560;9.714;2023-04-06T05:03:16;9.30;;;6.43;;
10248;SDS011;5169;50.560;9.714;2023-04-06T05:05:45;10.80;;;7.63;;
10248;SDS011;5169;50.560;9.714;2023-04-06T05:08:11;10.77;;;7.50;;
10248;SDS011;5169;50.560;9.714;2023-04-06T05:10:37;10.07;;;7.40;;
10248;SDS011;5169;50.560;9.714;2023-04-06T05:13:03;9.30;;;6.47;;
10248;SDS011;5169;50.560;9.714;2023-04-06T05:15:28;8.20;;;6.50;;
10248;SDS011;5169;50.560;9.714;2023-04-06T05:17:54;7.53;;;5.73;;
10248;SDS011;5169;50.560;9.714;2023-04-06T05:20:20;8.10;;;5.40;;
10248;SDS011;5169;50.560;9.714;2023-04-06T05:22:46;8.10;;;5.70;;
10248;SDS011;5169;50.560;9.714;2023-04-06T05:25:12;9.37;;;5.57;;
10248;SDS011;5169;50.560;9.714;2023-04-06T05:27:40;7.30;;;5.30;;
10248;SDS011;5169;50.560;9.714;2023-04-06T05:30:08;7.83;;;5.00;;
10248;SDS011;5169;50.560;9.714;2023-04-06T05:32:34;5.50;;;4.40;;
10248;SDS011;5169;50.560;9.714;2023-04-06T05:35:00;8.03;;;5.70;;
10248;SDS011;5169;50.560;9.714;2023-04-06T05:37:25;12.03;;;5.60;;
10248;SDS011;5169;50.560;9.714;2023-04-06T05:39:51;7.67;;;6.27;;
10248;SDS011;5169;50.560;9.714;2023-04-06T05:42:17;9.10;;;6.07;;
10248;SDS011;5169;50.560;9.714;2023-04-06T05:44:45;9.30;;;6.03;;
10248;SDS011;5169;50.560;9.714;2023-04-06T05:47:10;10.27;;;6.17;;
10248;SDS011;5169;50.560;9.714;2023-04-06T05:49:36;12.93;;;7.30;;
10248;SDS011;5169;50.560;9.714;2023-04-06T05:52:02;11.20;;;7.03;;
10248;SDS011;5169;50.560;9.714;2023-04-06T05:54:29;13.83;;;7.30;;
10248;SDS011;5169;50.560;9.714;2023-04-06T05:56:55;13.00;;;7.07;;
10248;SDS011;5169;50.560;9.714;2023-04-06T05:59:20;13.27;;;7.27;;
10248;SDS011;5169;50.560;9.714;2023-04-06T06:01:48;11.80;;;6.73;;
10248;SDS011;5169;50.560;9.714;2023-04-06T06:04:14;11.07;;;6.90;;
10248;SDS011;5169;50.560;9.714;2023-04-06T06:06:39;9.47;;;6.20;;
10248;SDS011;5169;50.560;9.714;2023-04-06T06:09:05;11.03;;;6.90;;
10248;SDS011;5169;50.560;9.714;2023-04-06T06:11:33;10.77;;;6.30;;
10248;SDS011;5169;50.560;9.714;2023-04-06T06:13:59;13.03;;;6.57;;
10248;SDS011;5169;50.560;9.714;2023-04-06T06:16:24;9.17;;;5.50;;
10248;SDS011;5169;50.560;9.714;2023-04-06T06:18:52;9.23;;;6.20;;
10248;SDS011;5169;50.560;9.714;2023-04-06T06:21:18;8.43;;;6.27;;
10248;SDS011;5169;50.560;9.714;2023-04-06T06:23:43;13.47;;;5.40;;
10248;SDS011;5169;50.560;9.714;2023-04-06T06:26:13;8.70;;;5.67;;
10248;SDS011;5169;50.560;9.714;2023-04-06T06:28:38;8.23;;;5.40;;
10248;SDS011;5169;50.560;9.714;2023-04-06T06:31:04;7.93;;;5.53;;
10248;SDS011;5169;50.560;9.714;2023-04-06T06:33:30;6.83;;;4.97;;
10248;SDS011;5169;50.560;9.714;2023-04-06T06:35:55;6.67;;;4.87;;
10248;SDS011;5169;50.560;9.714;2023-04-06T06:38:21;8.43;;;5.30;;
10248;SDS011;5169;50.560;9.714;2023-04-06T06:40:47;7.77;;;5.27;;
10248;SDS011;5169;50.560;9.714;2023-04-06T06:43:12;7.93;;;4.70;;
10248;SDS011;5169;50.560;9.714;2023-04-06T06:45:40;8.27;;;4.90;;
10248;SDS011;5169;50.560;9.714;2023-04-06T06:48:09;6.03;;;4.53;;
10248;SDS011;5169;50.560;9.714;2023-04-06T06:50:37;7.50;;;4.57;;
10248;SDS011;5169;50.560;9.714;2023-04-06T06:53:03;8.40;;;5.10;;
10248;SDS011;5169;50.560;9.714;2023-04-06T06:55:28;6.60;;;5.13;;
10248;SDS011;5169;50.560;9.714;2023-04-06T06:57:54;7.43;;;4.93;;
10248;SDS011;5169;50.560;9.714;2023-04-06T07:00:20;6.90;;;5.10;;
10248;SDS011;5169;50.560;9.714;2023-04-06T07:02:48;7.77;;;5.13;;
10248;SDS011;5169;50.560;9.714;2023-04-06T07:05:16;6.97;;;5.40;;
10248;SDS011;5169;50.560;9.714;2023-04-06T07:07:42;7.67;;;5.30;;
10248;SDS011;5169;50.560;9.714;2023-04-06T07:10:07;8.13;;;5.57;;
10248;SDS011;5169;50.560;9.714;2023-04-06T07:12:33;9.87;;;5.50;;
10248;SDS011;5169;50.560;9.714;2023-04-06T07:14:59;8.80;;;5.70;;
10248;SDS011;5169;50.560;9.714;2023-04-06T07:17:25;7.80;;;5.60;;
10248;SDS011;5169;50.560;9.714;2023-04-06T07:19:51;9.77;;;6.70;;
10248;SDS011;5169;50.560;9.714;2023-04-06T07:22:16;9.13;;;6.30;;
10248;SDS011;5169;50.560;9.714;2023-04-06T07:24:44;10.53;;;6.13;;
10248;SDS011;5169;50.560;9.714;2023-04-06T07:27:10;8.77;;;6.57;;
10248;SDS011;5169;50.560;9.714;2023-04-06T07:29:35;8.37;;;6.10;;
10248;SDS011;5169;50.560;9.714;2023-04-06T07:32:01;7.97;;;5.80;;
10248;SDS011;5169;50.560;9.714;2023-04-06T07:34:27;8.10;;;6.07;;
10248;SDS011;5169;50.560;9.714;2023-04-06T07:36:52;7.70;;;5.80;;
10248;SDS011;5169;50.560;9.714;2023-04-06T07:39:19;8.53;;;6.23;;
10248;SDS011;5169;50.560;9.714;2023-04-06T07:41:45;7.60;;;6.20;;
10248;SDS011;5169;50.560;9.714;2023-04-06T07:44:11;7.63;;;5.83;;
10248;SDS011;5169;50.560;9.714;2023-04-06T07:46:36;7.83;;;5.83;;
10248;SDS011;5169;50.560;9.714;2023-04-06T07:49:02;9.30;;;6.73;;
10248;SDS011;5169;50.560;9.714;2023-04-06T07:51:28;11.33;;;6.87;;
10248;SDS011;5169;50.560;9.714;2023-04-06T07:53:53;10.63;;;6.63;;
10248;SDS011;5169;50.560;9.714;2023-04-06T07:56:19;12.30;;;6.57;;
10248;SDS011;5169;50.560;9.714;2023-04-06T07:58:48;11.13;;;6.60;;
10248;SDS011;5169;50.560;9.714;2023-04-06T08:01:16;9.60;;;6.80;;
10248;SDS011;5169;50.560;9.714;2023-04-06T08:03:41;9.13;;;6.30;;
10248;SDS011;5169;50.560;9.714;2023-04-06T08:06:07;9.23;;;6.77;;
10248;SDS011;5169;50.560;9.714;2023-04-06T08:08:33;11.03;;;6.57;;
10248;SDS011;5169;50.560;9.714;2023-04-06T08:11:01;9.60;;;6.00;;
10248;SDS011;5169;50.560;9.714;2023-04-06T08:13:27;10.27;;;6.53;;
10248;SDS011;5169;50.560;9.714;2023-04-06T08:15:53;7.77;;;5.53;;
10248;SDS011;5169;50.560;9.714;2023-04-06T08:18:19;8.07;;;6.23;;
10248;SDS011;5169;50.560;9.714;2023-04-06T08:20:45;8.23;;;6.10;;
10248;SDS011;5169;50.560;9.714;2023-04-06T08:23:10;8.30;;;5.90;;
10248;SDS011;5169;50.560;9.714;2023-04-06T08:25:36;7.53;;;6.07;;
10248;SDS011;5169;50.560;9.714;2023-04-06T08:28:05;9.50;;;6.20;;
10248;SDS011;5169;50.560;9.714;2023-04-06T08:30:31;11.13;;;6.00;;
10248;SDS011;5169;50.560;9.714;2023-04-06T08:32:56;7.83;;;5.97;;
10248;SDS011;5169;50.560;9.714;2023-04-06T08:35:22;7.13;;;5.50;;
10248;SDS011;5169;50.560;9.714;2023-04-06T08:37:47;9.43;;;5.83;;
10248;SDS011;5169;50.560;9.714;2023-04-06T08:40:13;8.83;;;6.10;;
10248;SDS011;5169;50.560;9.714;2023-04-06T08:42:39;8.67;;;6.17;;
10248;SDS011;5169;50.560;9.714;2023-04-06T08:45:12;7.70;;;5.70;;
10248;SDS011;5169;50.560;9.714;2023-04-06T08:47:41;7.70;;;5.90;;
10248;SDS011;5169;50.560;9.714;2023-04-06T08:50:08;7.80;;;6.47;;
10248;SDS011;5169;50.560;9.714;2023-04-06T08:52:37;8.33;;;6.17;;
10248;SDS011;5169;50.560;9.714;2023-04-06T08:55:06;9.20;;;6.60;;
10248;SDS011;5169;50.560;9.714;2023-04-06T08:57:32;8.73;;;6.40;;
10248;SDS011;5169;50.560;9.714;2023-04-06T09:00:05;7.37;;;5.93;;
10248;SDS011;5169;50.560;9.714;2023-04-06T09:02:32;7.27;;;6.20;;
10248;SDS011;5169;50.560;9.714;2023-04-06T09:04:58;7.00;;;6.03;;
10248;SDS011;5169;50.560;9.714;2023-04-06T09:07:25;8.50;;;6.60;;
10248;SDS011;5169;50.560;9.714;2023-04-06T09:09:56;7.93;;;6.43;;
10248;SDS011;5169;50.560;9.714;2023-04-06T09:12:29;9.20;;;6.70;;
10248;SDS011;5169;50.560;9.714;2023-04-06T09:14:55;8.70;;;6.37;;
10248;SDS011;5169;50.560;9.714;2023-04-06T09:17:22;7.97;;;5.70;;
10248;SDS011;5169;50.560;9.714;2023-04-06T09:19:49;6.90;;;5.83;;
10248;SDS011;5169;50.560;9.714;2023-04-06T09:22:15;8.43;;;6.07;;
10248;SDS011;5169;50.560;9.714;2023-04-06T09:24:50;9.00;;;6.77;;
10248;SDS011;5169;50.560;9.714;2023-04-06T09:27:17;9.07;;;6.43;;
10248;SDS011;5169;50.560;9.714;2023-04-06T09:32:43;9.13;;;5.97;;
10248;SDS011;5169;50.560;9.714;2023-04-06T09:35:13;7.73;;;6.00;;
10248;SDS011;5169;50.560;9.714;2023-04-06T09:37:40;7.70;;;5.87;;
10248;SDS011;5169;50.560;9.714;2023-04-06T09:40:06;7.30;;;5.90;;
10248;SDS011;5169;50.560;9.714;2023-04-06T09:42:33;9.00;;;6.00;;
10248;SDS011;5169;50.560;9.714;2023-04-06T09:44:59;7.20;;;5.60;;
10248;SDS011;5169;50.560;9.714;2023-04-06T09:47:26;9.00;;;5.97;;
10248;SDS011;5169;50.560;9.714;2023-04-06T09:49:56;10.20;;;5.77;;
10248;SDS011;5169;50.560;9.714;2023-04-06T09:52:26;10.23;;;6.33;;
10248;SDS011;5169;50.560;9.714;2023-04-06T09:54:58;6.87;;;5.40;;
10248;SDS011;5169;50.560;9.714;2023-04-06T09:57:45;6.90;;;5.43;;
10248;SDS011;5169;50.560;9.714;2023-04-06T10:00:40;9.50;;;5.53;;
10248;SDS011;5169;50.560;9.714;2023-04-06T10:05:48;8.67;;;6.07;;
10248;SDS011;5169;50.560;9.714;2023-04-06T10:08:19;7.27;;;5.97;;
10248;SDS011;5169;50.560;9.714;2023-04-06T10:10:49;6.60;;;5.70;;
10248;SDS011;5169;50.560;9.714;2023-04-06T10:13:16;9.00;;;6.20;;
10248;SDS011;5169;50.560;9.714;2023-04-06T10:15:43;7.87;;;6.10;;
10248;SDS011;5169;50.560;9.714;2023-04-06T10:18:10;11.20;;;7.13;;
10248;SDS011;5169;50.560;9.714;2023-04-06T10:20:40;7.80;;;6.40;;
10248;SDS011;5169;50.560;9.714;2023-04-06T10:25:57;9.10;;;6.50;;
10248;SDS011;5169;50.560;9.714;2023-04-06T10:28:23;8.83;;;6.10;;
10248;SDS011;5169;50.560;9.714;2023-04-06T10:30:56;8.43;;;6.73;;
10248;SDS011;5169;50.560;9.714;2023-04-06T10:33:28;10.93;;;6.47;;
10248;SDS011;5169;50.560;9.714;2023-04-06T10:35:54;10.77;;;6.50;;
10248;SDS011;5169;50.560;9.714;2023-04-06T10:38:43;8.73;;;6.40;;
10248;SDS011;5169;50.560;9.714;2023-04-06T10:41:11;9.23;;;7.07;;
10248;SDS011;5169;50.560;9.714;2023-04-06T10:43:38;9.33;;;6.63;;
10248;SDS011;5169;50.560;9.714;2023-04-06T10:46:06;8.37;;;5.77;;
10248;SDS011;5169;50.560;9.714;2023-04-06T10:48:39;9.47;;;6.60;;
10248;SDS011;5169;50.560;9.714;2023-04-06T10:51:10;9.47;;;5.97;;
10248;SDS011;5169;50.560;9.714;2023-04-06T10:53:47;9.43;;;6.67;;
10248;SDS011;5169;50.560;9.714;2023-04-06T10:56:17;9.60;;;6.87;;
10248;SDS011;5169;50.560;9.714;2023-04-06T10:58:49;8.63;;;6.90;;
10248;SDS011;5169;50.560;9.714;2023-04-06T11:01:20;9.00;;;6.37;;
10248;SDS011;5169;50.560;9.714;2023-04-06T11:03:51;8.13;;;6.47;;
10248;SDS011;5169;50.560;9.714;2023-04-06T11:06:27;9.43;;;6.00;;
10248;SDS011;5169;50.560;9.714;2023-04-06T11:08:55;7.70;;;6.20;;
10248;SDS011;5169;50.560;9.714;2023-04-06T11:11:22;7.40;;;6.30;;
10248;SDS011;5169;50.560;9.714;2023-04-06T11:13:55;9.40;;;6.30;;
10248;SDS011;5169;50.560;9.714;2023-04-06T11:18:55;8.23;;;6.30;;
10248;SDS011;5169;50.560;9.714;2023-04-06T11:21:41;7.83;;;6.80;;
10248;SDS011;5169;50.560;9.714;2023-04-06T11:26:45;7.77;;;6.23;;
10248;SDS011;5169;50.560;9.714;2023-04-06T11:29:26;7.77;;;5.97;;
10248;SDS011;5169;50.560;9.714;2023-04-06T11:31:54;9.03;;;6.03;;
10248;SDS011;5169;50.560;9.714;2023-04-06T11:34:23;6.90;;;5.80;;
10248;SDS011;5169;50.560;9.714;2023-04-06T11:36:55;8.30;;;6.13;;
10248;SDS011;5169;50.560;9.714;2023-04-06T11:39:25;8.37;;;6.07;;
10248;SDS011;5169;50.560;9.714;2023-04-06T11:41:53;6.73;;;5.53;;
10248;SDS011;5169;50.560;9.714;2023-04-06T11:44:28;9.87;;;6.70;;
10248;SDS011;5169;50.560;9.714;2023-04-06T11:47:08;7.53;;;6.70;;
10248;SDS011;5169;50.560;9.714;2023-04-06T11:49:39;6.93;;;5.90;;
10248;SDS011;5169;50.560;9.714;2023-04-06T11:52:17;6.93;;;5.50;;
10248;SDS011;5169;50.560;9.714;2023-04-06T11:54:44;6.93;;;6.00;;
10248;SDS011;5169;50.560;9.714;2023-04-06T11:57:10;8.23;;;6.57;;
10248;SDS011;5169;50.560;9.714;2023-04-06T11:59:36;9.27;;;5.77;;
10248;SDS011;5169;50.560;9.714;2023-04-06T12:02:04;6.47;;;5.73;;
10248;SDS011;5169;50.560;9.714;2023-04-06T12:04:30;8.07;;;6.23;;
10248;SDS011;5169;50.560;9.714;2023-04-06T12:06:59;7.03;;;5.67;;
10248;SDS011;5169;50.560;9.714;2023-04-06T12:09:25;8.30;;;6.57;;
10248;SDS011;5169;50.560;9.714;2023-04-06T12:11:50;6.80;;;6.00;;
10248;SDS011;5169;50.560;9.714;2023-04-06T12:14:18;8.20;;;6.03;;
10248;SDS011;5169;50.560;9.714;2023-04-06T12:16:46;6.80;;;5.97;;
10248;SDS011;5169;50.560;9.714;2023-04-06T12:19:14;7.93;;;6.30;;
10248;SDS011;5169;50.560;9.714;2023-04-06T12:21:43;7.67;;;5.90;;
10248;SDS011;5169;50.560;9.714;2023-04-06T12:24:10;9.93;;;6.03;;
10248;SDS011;5169;50.560;9.714;2023-04-06T12:26:36;7.93;;;5.87;;
10248;SDS011;5169;50.560;9.714;2023-04-06T12:29:02;6.70;;;4.63;;
10248;SDS011;5169;50.560;9.714;2023-04-06T12:31:36;7.07;;;4.90;;
10248;SDS011;5169;50.560;9.714;2023-04-06T12:34:03;8.53;;;5.90;;
10248;SDS011;5169;50.560;9.714;2023-04-06T12:36:29;7.60;;;5.77;;
10248;SDS011;5169;50.560;9.714;2023-04-06T12:38:56;10.47;;;6.27;;
10248;SDS011;5169;50.560;9.714;2023-04-06T12:41:21;7.60;;;5.77;;
10248;SDS011;5169;50.560;9.714;2023-04-06T12:43:48;6.00;;;5.13;;
10248;SDS011;5169;50.560;9.714;2023-04-06T12:46:15;8.63;;;5.70;;
10248;SDS011;5169;50.560;9.714;2023-04-06T12:48:41;8.13;;;5.50;;
10248;SDS011;5169;50.560;9.714;2023-04-06T12:51:06;6.80;;;3.50;;
10248;SDS011;5169;50.560;9.714;2023-04-06T12:53:33;7.50;;;5.17;;
10248;SDS011;5169;50.560;9.714;2023-04-06T12:55:59;5.73;;;4.90;;
10248;SDS011;5169;50.560;9.714;2023-04-06T12:58:26;7.77;;;4.67;;
10248;SDS011;5169;50.560;9.714;2023-04-06T13:00:55;6.00;;;3.90;;
10248;SDS011;5169;50.560;9.714;2023-04-06T13:03:28;6.37;;;4.53;;
10248;SDS011;5169;50.560;9.714;2023-04-06T13:05:53;7.60;;;4.80;;
10248;SDS011;5169;50.560;9.714;2023-04-06T13:08:19;6.83;;;4.27;;
10248;SDS011;5169;50.560;9.714;2023-04-06T13:10:49;7.47;;;4.63;;
10248;SDS011;5169;50.560;9.714;2023-04-06T13:13:17;8.77;;;3.93;;
10248;SDS011;5169;50.560;9.714;2023-04-06T13:15:46;6.37;;;4.00;;
10248;SDS011;5169;50.560;9.714;2023-04-06T13:18:12;6.93;;;5.97;;
10248;SDS011;5169;50.560;9.714;2023-04-06T13:20:38;8.63;;;7.80;;
10248;SDS011;5169;50.560;9.714;2023-04-06T13:23:03;6.90;;;4.80;;
10248;SDS011;5169;50.560;9.714;2023-04-06T13:25:29;6.50;;;4.77;;
10248;SDS011;5169;50.560;9.714;2023-04-06T13:27:55;6.60;;;4.67;;
10248;SDS011;5169;50.560;9.714;2023-04-06T13:30:21;6.87;;;5.40;;
10248;SDS011;5169;50.560;9.714;2023-04-06T13:32:46;9.23;;;5.23;;
10248;SDS011;5169;50.560;9.714;2023-04-06T13:35:12;6.17;;;3.90;;
10248;SDS011;5169;50.560;9.714;2023-04-06T13:37:38;7.63;;;5.70;;
10248;SDS011;5169;50.560;9.714;2023-04-06T13:40:04;7.13;;;5.30;;
10248;SDS011;5169;50.560;9.714;2023-04-06T13:42:30;6.80;;;5.03;;
10248;SDS011;5169;50.560;9.714;2023-04-06T13:44:57;5.87;;;4.50;;
10248;SDS011;5169;50.560;9.714;2023-04-06T13:47:24;6.23;;;4.43;;
10248;SDS011;5169;50.560;9.714;2023-04-06T13:49:52;8.17;;;5.00;;
10248;SDS011;5169;50.560;9.714;2023-04-06T13:52:18;8.53;;;4.80;;
10248;SDS011;5169;50.560;9.714;2023-04-06T13:54:44;6.50;;;5.00;;
10248;SDS011;5169;50.560;9.714;2023-04-06T13:57:12;7.27;;;5.13;;
10248;SDS011;5169;50.560;9.714;2023-04-06T13:59:43;7.43;;;5.40;;
10248;SDS011;5169;50.560;9.714;2023-04-06T14:02:11;6.70;;;4.70;;
10248;SDS011;5169;50.560;9.714;2023-04-06T14:04:36;4.57;;;3.90;;
10248;SDS011;5169;50.560;9.714;2023-04-06T14:07:05;9.43;;;4.80;;
10248;SDS011;5169;50.560;9.714;2023-04-06T14:09:33;6.23;;;5.00;;
10248;SDS011;5169;50.560;9.714;2023-04-06T14:11:59;6.87;;;4.63;;
10248;SDS011;5169;50.560;9.714;2023-04-06T14:14:25;6.13;;;4.37;;
10248;SDS011;5169;50.560;9.714;2023-04-06T14:16:53;7.80;;;4.40;;
10248;SDS011;5169;50.560;9.714;2023-04-06T14:19:19;6.83;;;4.10;;
10248;SDS011;5169;50.560;9.714;2023-04-06T14:21:46;5.00;;;3.90;;
10248;SDS011;5169;50.560;9.714;2023-04-06T14:24:14;4.70;;;3.73;;
10248;SDS011;5169;50.560;9.714;2023-04-06T14:26:41;4.93;;;3.70;;
10248;SDS011;5169;50.560;9.714;2023-04-06T14:29:07;4.60;;;3.50;;
10248;SDS011;5169;50.560;9.714;2023-04-06T14:31:33;6.63;;;4.17;;
10248;SDS011;5169;50.560;9.714;2023-04-06T14:34:04;9.33;;;4.40;;
10248;SDS011;5169;50.560;9.714;2023-04-06T14:36:32;7.17;;;4.83;;
10248;SDS011;5169;50.560;9.714;2023-04-06T14:39:06;6.80;;;3.93;;
10248;SDS011;5169;50.560;9.714;2023-04-06T14:41:32;4.13;;;3.60;;
10248;SDS011;5169;50.560;9.714;2023-04-06T14:43:58;6.37;;;3.77;;
10248;SDS011;5169;50.560;9.714;2023-04-06T14:46:25;5.13;;;3.83;;
10248;SDS011;5169;50.560;9.714;2023-04-06T14:48:56;4.93;;;3.93;;
10248;SDS011;5169;50.560;9.714;2023-04-06T14:51:25;6.13;;;3.83;;
10248;SDS011;5169;50.560;9.714;2023-04-06T14:53:54;6.30;;;4.40;;
10248;SDS011;5169;50.560;9.714;2023-04-06T14:56:20;6.07;;;4.33;;
10248;SDS011;5169;50.560;9.714;2023-04-06T14:58:47;5.63;;;4.20;;
10248;SDS011;5169;50.560;9.714;2023-04-06T15:01:13;7.00;;;4.47;;
10248;SDS011;5169;50.560;9.714;2023-04-06T15:03:41;5.40;;;4.10;;
10248;SDS011;5169;50.560;9.714;2023-04-06T15:06:11;5.53;;;4.23;;
10248;SDS011;5169;50.560;9.714;2023-04-06T15:08:39;5.40;;;4.37;;
10248;SDS011;5169;50.560;9.714;2023-04-06T15:11:08;7.87;;;5.00;;
10248;SDS011;5169;50.560;9.714;2023-04-06T15:13:34;7.00;;;4.50;;